Time;durP1;ratioP1;P1;durP2;ratioP2;P2;SDS_P1;SDS_P2;PMS_P1;PMS_P2;Temp;Humidity;BMP_temperature;BMP_pressure;BME280_temperature;BME280_humidity;BME280_pressure;Samples;Min_cycle;Max_cycle;Signal;HPM_P1;HPM_P2
2023/09/05 00:00:19;;;;;;;5.80;5.30;;;;;;;18.87;67.18;101154.34;6024025;23;20691;-70
2023/09/05 00:02:48;;;;;;;5.90;5.50;;;;;;;18.37;66.92;101074.13;6000450;23;20223;-70
2023/09/05 00:05:18;;;;;;;5.60;5.30;;;;;;;18.83;66.98;101151.09;6021762;23;20041;-70
2023/09/05 00:07:45;;;;;;;5.80;5.50;;;;;;;18.82;67.42;101146.75;6019067;23;20018;-70
2023/09/05 00:10:12;;;;;;;5.85;5.53;;;;;;;18.46;67.04;101098.16;6024019;23;20105;-70
2023/09/05 00:12:43;;;;;;;5.35;5.15;;;;;;;18.85;66.90;101146.50;6019187;23;20093;-70
2023/09/05 00:15:11;;;;;;;6.20;5.70;;;;;;;18.80;67.07;101137.19;6019486;23;20087;-70
2023/09/05 00:17:38;;;;;;;5.53;5.13;;;;;;;18.54;66.84;101101.06;6021667;23;20026;-71
2023/09/05 00:20:06;;;;;;;6.07;5.63;;;;;;;18.64;66.68;101095.84;6015829;23;20061;-69
2023/09/05 00:22:34;;;;;;;5.68;5.30;;;;;;;18.68;66.41;101091.13;5977266;23;20436;-70
2023/09/05 00:25:00;;;;;;;6.30;5.90;;;;;;;18.91;66.88;101139.84;6023980;23;20117;-72
2023/09/05 00:27:27;;;;;;;6.10;5.70;;;;;;;18.86;66.22;101126.06;5996444;23;20144;-69
2023/09/05 00:29:53;;;;;;;5.90;5.55;;;;;;;18.51;66.38;101084.50;6047741;23;20034;-70
2023/09/05 00:32:20;;;;;;;5.88;5.45;;;;;;;18.64;66.26;101095.00;6057442;23;20075;-71
2023/09/05 00:34:47;;;;;;;6.00;5.60;;;;;;;18.32;66.61;101067.38;6079460;23;20504;-70
2023/09/05 00:37:21;;;;;;;5.60;5.30;;;;;;;18.68;66.77;101115.91;6083851;23;20056;-70
2023/09/05 00:39:48;;;;;;;5.60;5.30;;;;;;;18.72;67.19;101148.41;6060670;23;20030;-70
2023/09/05 00:42:15;;;;;;;5.80;5.40;;;;;;;17.68;67.48;101003.28;6084477;23;20214;-70
2023/09/05 00:44:44;;;;;;;5.40;5.10;;;;;;;18.60;67.77;101152.91;6067910;23;20026;-70
2023/09/05 00:47:11;;;;;;;5.80;5.50;;;;;;;18.44;67.97;101149.72;6086637;23;20033;-70
2023/09/05 00:49:47;;;;;;;5.95;5.60;;;;;;;18.58;67.57;101144.16;6062834;23;20801;-70
2023/09/05 00:52:17;;;;;;;5.88;5.57;;;;;;;18.48;67.28;101119.28;6082028;23;20684;-71
2023/09/05 00:54:44;;;;;;;5.35;5.13;;;;;;;18.23;67.03;101070.75;6090404;23;20614;-70
2023/09/05 00:57:15;;;;;;;5.97;5.57;;;;;;;18.36;66.65;101078.56;6088392;23;20078;-71
2023/09/05 00:59:42;;;;;;;5.30;5.00;;;;;;;17.67;66.47;100967.97;6064596;23;20101;-71
2023/09/05 01:02:09;;;;;;;6.00;5.70;;;;;;;18.28;66.91;101086.31;6088272;23;20100;-71
2023/09/05 01:04:36;;;;;;;5.50;5.20;;;;;;;18.36;67.30;101109.63;6090851;23;20045;-70
2023/09/05 01:07:02;;;;;;;5.70;5.40;;;;;;;18.52;67.87;101158.81;6070661;23;20032;-72
2023/09/05 01:09:56;;;;;;;5.82;5.32;;;;;;;18.48;67.94;101157.38;6064589;23;20037;-75
2023/09/05 01:12:23;;;;;;;5.53;5.22;;;;;;;17.92;67.37;101097.03;6064517;23;20049;-71
2023/09/05 01:14:50;;;;;;;5.68;5.38;;;;;;;18.32;68.21;101175.44;6088280;23;20041;-69
2023/09/05 01:17:16;;;;;;;6.10;5.78;;;;;;;18.18;68.54;101167.69;6086984;23;20026;-71
2023/09/05 01:19:43;;;;;;;5.90;5.50;;;;;;;18.21;69.40;101194.88;6064826;23;20100;-71
2023/09/05 01:22:13;;;;;;;5.35;5.00;;;;;;;18.22;69.13;101196.59;6087511;23;20078;-72
2023/09/05 01:24:40;;;;;;;5.60;5.30;;;;;;;17.90;69.41;101145.88;6068786;23;20614;-71
2023/09/05 01:27:08;;;;;;;5.60;5.30;;;;;;;18.29;68.94;101200.44;6087161;23;20087;-70
2023/09/05 01:29:36;;;;;;;5.95;5.55;;;;;;;17.82;69.86;101137.63;6090217;23;20075;-69
2023/09/05 01:32:04;;;;;;;6.72;5.43;;;;;;;17.98;70.25;101171.88;6064710;23;20120;-69
2023/09/05 01:34:31;;;;;;;5.75;5.38;;;;;;;18.01;70.52;101192.91;6087729;23;20036;-69
2023/09/05 01:36:58;;;;;;;5.60;5.30;;;;;;;17.83;70.72;101180.03;6055193;23;20030;-69
2023/09/05 01:39:25;;;;;;;5.75;5.43;;;;;;;17.93;70.53;101204.94;6065063;23;20047;-69
2023/09/05 01:41:51;;;;;;;5.45;5.15;;;;;;;17.71;70.95;101179.09;6089422;23;20077;-70
2023/09/05 01:44:18;;;;;;;5.72;5.43;;;;;;;17.68;70.61;101174.03;6088264;23;20030;-69
2023/09/05 01:46:45;;;;;;;6.07;5.63;;;;;;;17.74;71.55;101213.41;6088066;23;20042;-69
2023/09/05 01:49:11;;;;;;;5.38;5.07;;;;;;;17.18;72.25;101136.19;6069184;23;20519;-69
2023/09/05 01:51:38;;;;;;;5.43;5.13;;;;;;;17.73;71.25;101195.78;6088979;23;20021;-69
2023/09/05 01:54:05;;;;;;;5.50;5.20;;;;;;;17.26;71.63;101122.31;6060258;23;20066;-69
2023/09/05 01:56:31;;;;;;;5.72;5.43;;;;;;;17.41;71.40;101141.59;6094342;23;20017;-69
2023/09/05 01:58:58;;;;;;;6.15;5.70;;;;;;;17.65;71.26;101179.56;6119109;23;20151;-70
2023/09/05 02:01:24;;;;;;;5.57;5.28;;;;;;;17.54;71.48;101161.81;6116658;23;20441;-70
2023/09/05 02:03:51;;;;;;;5.53;5.13;;;;;;;17.41;71.00;101131.81;6122062;23;20028;-73
2023/09/05 02:06:18;;;;;;;5.63;5.32;;;;;;;17.39;71.34;101139.03;6117857;23;20016;-70
2023/09/05 02:08:46;;;;;;;5.80;5.50;;;;;;;17.58;71.40;101166.88;6115368;23;20037;-70
2023/09/05 02:11:14;;;;;;;5.57;5.28;;;;;;;16.81;71.21;101047.81;6115686;23;20101;-69
2023/09/05 02:13:40;;;;;;;5.80;5.50;;;;;;;17.52;70.67;101145.16;6100694;23;20101;-70
2023/09/05 02:16:07;;;;;;;5.85;5.55;;;;;;;17.82;70.55;101183.63;6092509;23;20026;-69
2023/09/05 02:18:34;;;;;;;6.07;5.68;;;;;;;17.61;70.64;101137.47;6117980;23;20025;-70
2023/09/05 02:21:01;;;;;;;5.72;5.43;;;;;;;17.64;70.50;101139.88;6112410;23;20017;-69
2023/09/05 02:23:28;;;;;;;5.70;5.40;;;;;;;17.69;70.49;101149.19;6117079;23;20103;-68
2023/09/05 02:25:59;;;;;;;5.65;5.35;;;;;;;17.81;70.77;101166.00;6113360;23;20030;-70
2023/09/05 02:28:26;;;;;;;5.72;5.40;;;;;;;17.82;71.00;101161.53;6088010;23;20096;-71
2023/09/05 02:30:53;;;;;;;5.57;5.28;;;;;;;17.79;70.60;101149.34;6114182;23;20025;-69
2023/09/05 02:33:21;;;;;;;5.88;5.57;;;;;;;17.81;70.74;101171.31;6088770;23;20024;-71
2023/09/05 02:35:48;;;;;;;5.50;5.20;;;;;;;17.45;70.33;101097.94;6121128;23;20021;-70
2023/09/05 02:38:15;;;;;;;5.65;5.35;;;;;;;17.74;71.00;101159.47;6117412;23;20022;-70
2023/09/05 02:40:49;;;;;;;5.85;5.45;;;;;;;17.75;70.51;101164.66;6114823;23;20605;-70
2023/09/05 02:43:15;;;;;;;5.63;5.32;;;;;;;17.74;70.63;101154.16;6114173;23;20055;-69
2023/09/05 02:45:50;;;;;;;5.85;5.40;;;;;;;17.35;70.45;101093.31;6121086;23;20025;-71
2023/09/05 02:48:17;;;;;;;5.40;5.10;;;;;;;17.47;70.44;101104.00;6091680;23;20456;-70
2023/09/05 02:50:43;;;;;;;5.57;5.28;;;;;;;17.70;70.50;101137.63;6116699;23;20096;-69
2023/09/05 02:53:10;;;;;;;5.78;5.47;;;;;;;17.75;70.77;101146.06;6112990;23;20070;-70
2023/09/05 02:55:43;;;;;;;5.40;5.10;;;;;;;17.78;70.00;101128.22;6112549;23;20080;-71
2023/09/05 02:58:10;;;;;;;6.10;5.70;;;;;;;17.50;70.40;101098.44;6114017;23;20522;-70
2023/09/05 03:00:37;;;;;;;5.80;5.40;;;;;;;17.79;69.77;101136.06;6090376;23;20021;-71
2023/09/05 03:03:04;;;;;;;5.70;5.40;;;;;;;17.82;69.89;101124.34;6084030;23;20052;-70
2023/09/05 03:05:31;;;;;;;5.90;5.50;;;;;;;17.76;69.95;101136.31;6114697;23;20131;-71
2023/09/05 03:07:57;;;;;;;6.13;5.72;;;;;;;17.23;69.98;101064.22;6116044;23;20026;-70
2023/09/05 03:10:24;;;;;;;5.45;5.15;;;;;;;17.65;69.94;101141.56;6116966;23;20021;-69
2023/09/05 03:12:52;;;;;;;5.45;5.15;;;;;;;17.18;70.26;101072.53;6120358;23;20036;-70
2023/09/05 03:15:20;;;;;;;6.10;5.60;;;;;;;17.50;70.29;101133.81;6115840;23;20017;-69
2023/09/05 03:17:47;;;;;;;5.40;5.10;;;;;;;17.51;69.76;101134.63;6088132;23;20025;-70
2023/09/05 03:20:15;;;;;;;5.70;5.40;;;;;;;17.60;70.32;101149.00;6113882;23;20033;-70
2023/09/05 03:22:42;;;;;;;5.70;5.32;;;;;;;17.52;70.30;101153.09;6114320;23;20029;-69
2023/09/05 03:25:08;;;;;;;5.55;5.25;;;;;;;17.05;70.62;101082.34;6113394;23;20044;-70
2023/09/05 03:27:35;;;;;;;5.32;5.07;;;;;;;17.30;71.25;101139.75;6116241;23;20097;-70
2023/09/05 03:30:02;;;;;;;5.45;5.15;;;;;;;17.29;71.20;101146.00;6111760;23;20070;-71
2023/09/05 03:32:28;;;;;;;5.57;5.28;;;;;;;17.53;70.44;101149.47;6092080;23;20041;-70
2023/09/05 03:34:55;;;;;;;5.43;5.13;;;;;;;17.20;70.38;101083.00;6115410;23;20168;-70
2023/09/05 03:37:23;;;;;;;5.30;5.00;;;;;;;17.19;69.67;101078.66;6110462;23;20029;-70
2023/09/05 03:39:49;;;;;;;5.60;5.30;;;;;;;17.49;70.93;101129.44;6088264;23;20496;-70
2023/09/05 03:42:16;;;;;;;5.90;5.50;;;;;;;16.92;70.03;101040.81;6088510;23;20519;-71
2023/09/05 03:44:43;;;;;;;5.65;5.30;;;;;;;16.90;70.44;101060.44;6118181;23;20045;-70
2023/09/05 03:47:09;;;;;;;5.20;5.00;;;;;;;16.94;70.74;101059.25;6114494;23;20127;-70
2023/09/05 03:49:36;;;;;;;5.70;5.40;;;;;;;17.33;70.88;101134.19;6108356;23;20101;-70
2023/09/05 03:52:03;;;;;;;5.90;5.40;;;;;;;17.16;71.42;101122.19;6068634;23;20453;-69
2023/09/05 03:54:29;;;;;;;5.80;5.50;;;;;;;17.12;71.75;101132.16;6089467;23;20053;-71
2023/09/05 03:56:56;;;;;;;5.28;4.97;;;;;;;17.00;72.18;101130.41;6093088;23;20037;-71
2023/09/05 03:59:22;;;;;;;6.25;5.80;;;;;;;17.09;72.23;101131.53;6095517;23;20006;-71
2023/09/05 04:01:51;;;;;;;5.60;5.30;;;;;;;17.00;71.85;101113.63;6093141;23;20080;-70
2023/09/05 04:04:17;;;;;;;5.72;5.43;;;;;;;17.17;71.77;101149.53;6083149;23;20050;-69
2023/09/05 04:06:44;;;;;;;5.35;5.05;;;;;;;17.02;71.64;101125.84;6064033;23;20075;-69
2023/09/05 04:09:10;;;;;;;5.50;5.20;;;;;;;16.51;72.95;101063.16;6087908;23;20034;-70
2023/09/05 04:11:37;;;;;;;5.43;5.13;;;;;;;16.87;72.42;101141.03;6061756;23;20030;-71
2023/09/05 04:14:03;;;;;;;5.03;4.80;;;;;;;17.03;72.76;101177.06;6062331;23;20102;-70
2023/09/05 04:16:30;;;;;;;5.50;5.18;;;;;;;16.72;73.05;101126.22;6083040;23;20053;-69
2023/09/05 04:18:56;;;;;;;5.53;5.22;;;;;;;16.15;72.92;101032.19;6071165;23;20045;-70
2023/09/05 04:21:26;;;;;;;5.30;5.00;;;;;;;16.70;73.15;101120.16;6094967;23;20034;-71
2023/09/05 04:23:53;;;;;;;5.43;5.07;;;;;;;16.50;73.77;101130.38;6077578;23;20022;-70
2023/09/05 04:26:22;;;;;;;5.68;5.18;;;;;;;16.51;74.10;101137.34;6063470;23;20523;-70
2023/09/05 04:28:48;;;;;;;5.75;5.45;;;;;;;16.83;73.92;101181.97;6095008;23;20041;-70
2023/09/05 04:31:19;;;;;;;5.75;5.25;;;;;;;16.79;74.23;101196.38;6095418;23;20100;-70
2023/09/05 04:33:46;;;;;;;5.30;5.00;;;;;;;16.74;74.70;101188.75;6092081;23;20045;-69
2023/09/05 04:36:12;;;;;;;5.05;4.82;;;;;;;16.64;74.80;101173.63;6094335;23;20025;-72
2023/09/05 04:38:43;;;;;;;5.07;4.88;;;;;;;16.81;74.71;101197.13;6090823;23;20046;-71
2023/09/05 04:41:09;;;;;;;5.85;5.45;;;;;;;16.87;74.51;101185.25;6064021;23;20624;-68
2023/09/05 04:43:36;;;;;;;5.28;4.97;;;;;;;16.82;74.67;101179.41;6091866;23;20039;-70
2023/09/05 04:46:05;;;;;;;5.30;5.00;;;;;;;16.79;74.80;101183.09;6063861;23;20013;-70
2023/09/05 04:48:32;;;;;;;5.30;5.00;;;;;;;16.75;75.05;101186.94;6064188;23;20100;-71
2023/09/05 04:51:01;;;;;;;5.28;4.97;;;;;;;16.50;75.22;101146.25;6132753;23;20503;-69
2023/09/05 04:53:28;;;;;;;5.57;5.28;;;;;;;16.74;75.21;101185.25;6090246;23;20021;-71
2023/09/05 04:55:59;;;;;;;5.32;5.03;;;;;;;16.41;75.10;101132.81;6125860;23;20029;-70
2023/09/05 04:58:27;;;;;;;5.53;5.22;;;;;;;16.54;75.34;101152.19;6097127;23;20017;-71
2023/09/05 05:00:59;;;;;;;5.30;5.00;;;;;;;16.82;75.40;101203.28;6122749;23;20084;-70
2023/09/05 05:03:26;;;;;;;5.50;5.20;;;;;;;16.79;75.83;101195.53;6125760;23;20037;-69
2023/09/05 05:05:52;;;;;;;5.93;5.50;;;;;;;16.46;75.41;101146.59;6096335;23;20096;-69
2023/09/05 05:08:19;;;;;;;5.72;5.43;;;;;;;16.54;75.80;101178.69;6098171;23;20026;-69
2023/09/05 05:10:45;;;;;;;5.25;4.95;;;;;;;16.31;76.23;101148.50;6116420;23;20043;-69
2023/09/05 05:13:12;;;;;;;5.75;5.45;;;;;;;16.42;76.10;101155.72;6097449;23;20023;-70
2023/09/05 05:15:38;;;;;;;5.30;5.00;;;;;;;16.59;75.96;101181.84;6127251;23;20108;-69
2023/09/05 05:18:05;;;;;;;5.75;5.45;;;;;;;16.46;75.84;101154.53;6121829;23;20087;-70
2023/09/05 05:20:48;;;;;;;5.10;4.88;;;;;;;16.91;75.26;101218.53;6098637;23;20023;-70
2023/09/05 05:23:14;;;;;;;5.60;5.30;;;;;;;16.80;75.41;101195.44;6094855;23;20045;-69
2023/09/05 05:25:42;;;;;;;5.95;5.53;;;;;;;17.01;75.53;101224.06;6119352;23;20468;-70
2023/09/05 05:28:09;;;;;;;5.22;4.93;;;;;;;16.86;75.08;101181.75;6128115;23;20089;-69
2023/09/05 05:30:36;;;;;;;5.40;5.10;;;;;;;16.99;74.80;101192.34;6106473;23;20021;-69
2023/09/05 05:33:03;;;;;;;5.60;5.20;;;;;;;17.15;74.22;101206.19;6128698;23;20020;-70
2023/09/05 05:35:30;;;;;;;5.40;5.10;;;;;;;17.31;73.49;101203.28;6099198;23;20016;-70
2023/09/05 05:37:56;;;;;;;5.65;5.35;;;;;;;17.28;73.31;101181.41;6125357;23;20014;-70
2023/09/05 05:40:23;;;;;;;5.47;5.18;;;;;;;17.51;72.55;101201.81;6125553;23;20658;-70
2023/09/05 05:42:49;;;;;;;5.88;5.47;;;;;;;17.34;72.34;101170.38;6133577;23;20077;-70
2023/09/05 05:45:16;;;;;;;5.95;5.55;;;;;;;17.31;71.99;101138.75;6120692;23;20017;-69
2023/09/05 05:47:42;;;;;;;5.53;5.13;;;;;;;17.81;71.64;101208.47;6095014;23;20053;-70
2023/09/05 05:50:09;;;;;;;6.25;5.85;;;;;;;17.54;71.23;101147.69;6121955;23;20022;-69
2023/09/05 05:52:36;;;;;;;5.70;5.40;;;;;;;17.97;70.99;101186.97;6121846;23;20033;-69
2023/09/05 05:55:02;;;;;;;5.47;5.18;;;;;;;17.85;70.56;101153.38;6122842;23;20021;-70
2023/09/05 05:57:29;;;;;;;5.50;5.20;;;;;;;18.10;70.35;101192.19;6092097;23;20112;-69
2023/09/05 05:59:55;;;;;;;5.60;5.30;;;;;;;17.84;70.01;101147.22;6125359;23;20128;-69
2023/09/05 06:02:22;;;;;;;5.78;5.47;;;;;;;18.23;70.50;101208.03;6128205;23;20091;-69
2023/09/05 06:04:48;;;;;;;5.88;5.38;;;;;;;18.12;70.61;101180.50;6122653;23;20048;-70
2023/09/05 06:07:14;;;;;;;5.75;5.40;;;;;;;17.83;70.19;101132.25;6124060;23;20028;-69
2023/09/05 06:09:41;;;;;;;5.90;5.50;;;;;;;18.03;69.76;101140.50;6092863;23;20700;-69
2023/09/05 06:12:07;;;;;;;5.40;5.18;;;;;;;18.38;69.77;101198.03;6119529;23;20559;-70
2023/09/05 06:14:34;;;;;;;6.13;5.72;;;;;;;18.47;69.54;101208.81;6125437;23;20033;-70
2023/09/05 06:17:01;;;;;;;5.50;5.20;;;;;;;18.60;68.77;101198.09;6121734;23;20136;-70
2023/09/05 06:19:27;;;;;;;5.60;5.30;;;;;;;18.46;68.57;101171.72;6122813;23;20045;-70
2023/09/05 06:21:58;;;;;;;5.80;5.50;;;;;;;18.55;68.02;101133.78;6120618;23;20542;-70
2023/09/05 06:24:25;;;;;;;5.93;5.53;;;;;;;18.52;67.09;101105.66;6128551;23;20014;-69
2023/09/05 06:26:51;;;;;;;5.88;5.38;;;;;;;19.11;67.31;101194.09;6119349;23;20596;-69
2023/09/05 06:29:17;;;;;;;5.82;5.50;;;;;;;18.43;66.37;101065.66;6126162;23;20029;-70
2023/09/05 06:31:47;;;;;;;6.05;5.40;;;;;;;19.49;65.82;101188.31;6117603;23;20095;-70
2023/09/05 06:34:15;;;;;;;5.72;5.43;;;;;;;19.67;64.70;101180.63;6095951;23;20658;-69
2023/09/05 06:36:41;;;;;;;6.00;5.70;;;;;;;19.40;64.73;101114.53;6118362;23;20026;-70
2023/09/05 06:39:08;;;;;;;5.90;5.50;;;;;;;19.90;64.13;101160.06;6069835;23;20100;-69
2023/09/05 06:41:35;;;;;;;5.30;5.10;;;;;;;20.03;63.47;101132.41;6122384;23;20031;-69
2023/09/05 06:44:01;;;;;;;5.80;5.38;;;;;;;19.89;63.41;101110.47;6101899;23;20048;-71
2023/09/05 06:46:28;;;;;;;5.80;5.50;;;;;;;20.18;63.32;101148.91;6122629;23;20025;-69
2023/09/05 06:48:54;;;;;;;5.75;5.45;;;;;;;20.06;63.14;101127.66;6129587;23;20088;-69
2023/09/05 06:51:21;;;;;;;5.72;5.43;;;;;;;20.04;62.64;101081.66;6118575;23;20029;-69
2023/09/05 06:53:47;;;;;;;5.90;5.60;;;;;;;20.45;62.19;101135.03;6129043;23;20165;-69
2023/09/05 06:56:14;;;;;;;5.57;5.28;;;;;;;20.34;60.71;101074.63;6126568;23;20080;-69
2023/09/05 06:58:40;;;;;;;5.53;5.22;;;;;;;20.60;60.72;101114.19;6126511;23;20027;-69
2023/09/05 07:01:06;;;;;;;6.25;5.75;;;;;;;20.74;60.61;101123.66;6122176;23;20031;-69
2023/09/05 07:03:33;;;;;;;5.88;5.47;;;;;;;20.77;60.48;101128.69;6122267;23;20018;-69
2023/09/05 07:06:03;;;;;;;5.55;5.25;;;;;;;20.76;59.89;101098.50;6122956;23;20041;-70
2023/09/05 07:08:33;;;;;;;6.05;5.55;;;;;;;20.62;59.47;101073.06;6126994;23;20463;-69
2023/09/05 07:10:59;;;;;;;5.70;5.40;;;;;;;20.97;59.44;101133.13;6125603;23;20075;-69
2023/09/05 07:13:26;;;;;;;5.38;5.10;;;;;;;20.55;58.96;101037.25;6126237;23;20464;-69
2023/09/05 07:15:52;;;;;;;5.70;5.40;;;;;;;21.01;59.24;101123.88;6122863;23;20067;-69
2023/09/05 07:18:19;;;;;;;5.70;5.40;;;;;;;20.83;59.58;101106.84;6116708;23;20048;-69
2023/09/05 07:20:46;;;;;;;5.68;5.38;;;;;;;20.95;60.17;101112.88;6094331;23;20025;-69
2023/09/05 07:23:12;;;;;;;5.80;5.40;;;;;;;21.11;59.11;101111.38;6101945;23;20032;-69
2023/09/05 07:25:39;;;;;;;5.72;5.40;;;;;;;21.14;58.56;101080.88;6096642;23;20025;-69
2023/09/05 07:28:06;;;;;;;6.25;5.78;;;;;;;21.23;58.25;101092.56;6116823;23;20024;-70
2023/09/05 07:30:33;;;;;;;5.60;5.30;;;;;;;21.28;58.51;101115.16;6118322;23;20025;-69
2023/09/05 07:33:00;;;;;;;6.07;5.68;;;;;;;21.37;57.43;101060.09;6093255;23;20017;-70
2023/09/05 07:35:26;;;;;;;6.03;5.70;;;;;;;21.57;56.55;101068.09;6067643;23;20022;-70
2023/09/05 07:37:53;;;;;;;5.90;5.60;;;;;;;21.91;57.27;101133.47;6098672;23;20062;-69
2023/09/05 07:40:22;;;;;;;6.03;5.63;;;;;;;21.61;57.23;101109.56;6125155;23;20522;-69
2023/09/05 07:42:50;;;;;;;6.03;5.40;;;;;;;21.66;56.21;101067.25;6089051;23;20036;-70
2023/09/05 07:45:16;;;;;;;5.85;5.55;;;;;;;22.14;56.86;101156.34;6117510;23;20014;-69
2023/09/05 07:47:43;;;;;;;6.18;5.78;;;;;;;22.27;56.47;101173.78;6097699;23;20026;-69
2023/09/05 07:50:10;;;;;;;5.93;5.47;;;;;;;21.65;55.95;100998.78;6090079;23;20036;-69
2023/09/05 07:52:37;;;;;;;5.78;5.47;;;;;;;22.30;55.07;101103.97;6103330;23;20481;-69
2023/09/05 07:55:03;;;;;;;5.78;5.47;;;;;;;22.41;55.69;101115.47;6131741;23;20136;-69
2023/09/05 07:57:30;;;;;;;5.97;5.60;;;;;;;22.10;55.79;101072.91;6126207;23;20041;-70
2023/09/05 07:59:56;;;;;;;6.10;5.70;;;;;;;22.39;55.92;101120.13;6125197;23;20084;-69
2023/09/05 08:02:23;;;;;;;6.00;5.60;;;;;;;22.36;55.75;101109.72;6120158;23;20029;-71
2023/09/05 08:04:49;;;;;;;5.95;5.63;;;;;;;22.34;55.16;101079.63;6124098;23;20057;-69
2023/09/05 08:07:16;;;;;;;5.95;5.65;;;;;;;22.38;54.43;101054.25;6121886;23;20514;-70
2023/09/05 08:09:44;;;;;;;6.60;6.10;;;;;;;22.78;55.08;101123.47;6065584;23;20130;-70
2023/09/05 08:12:10;;;;;;;5.95;5.65;;;;;;;22.88;54.32;101128.75;6102815;23;20644;-69
2023/09/05 08:14:36;;;;;;;6.10;5.80;;;;;;;22.98;54.04;101118.84;6099204;23;20029;-69
2023/09/05 08:17:03;;;;;;;5.93;5.60;;;;;;;22.98;53.39;101099.25;6100115;23;20145;-70
2023/09/05 08:19:31;;;;;;;6.55;5.47;;;;;;;22.87;54.33;101073.53;6103934;23;20029;-69
2023/09/05 08:21:57;;;;;;;6.05;5.70;;;;;;;22.84;54.31;101077.34;6108108;23;20006;-70
2023/09/05 08:24:25;;;;;;;6.22;5.82;;;;;;;23.21;53.76;101113.94;6129233;23;20025;-70
2023/09/05 08:26:52;;;;;;;6.40;6.00;;;;;;;23.13;53.04;101080.84;6104802;23;20179;-70
2023/09/05 08:29:23;;;;;;;6.18;5.88;;;;;;;23.30;53.12;101121.03;6119556;23;20101;-70
2023/09/05 08:31:49;;;;;;;6.15;5.78;;;;;;;23.53;53.33;101143.81;6101586;23;20036;-70
2023/09/05 08:34:16;;;;;;;6.13;5.82;;;;;;;23.29;53.30;101076.50;6104900;23;20078;-70
2023/09/05 08:36:43;;;;;;;6.68;6.28;;;;;;;23.56;53.03;101119.41;6084575;23;20055;-70
2023/09/05 08:39:09;;;;;;;6.07;5.78;;;;;;;23.15;52.98;101046.72;6109267;23;20017;-69
2023/09/05 08:41:36;;;;;;;5.93;5.63;;;;;;;23.76;52.02;101096.78;6120262;23;20393;-70
2023/09/05 08:44:04;;;;;;;6.10;5.80;;;;;;;23.89;51.74;101077.63;6126045;23;20082;-70
2023/09/05 08:46:31;;;;;;;6.20;5.82;;;;;;;23.57;52.41;101054.09;6101327;23;20107;-70
2023/09/05 08:48:57;;;;;;;5.70;5.40;;;;;;;24.14;51.01;101073.28;6121406;23;20029;-70
2023/09/05 08:51:31;;;;;;;6.00;5.70;;;;;;;23.92;50.38;101030.94;6094955;23;20030;-70
2023/09/05 08:54:00;;;;;;;6.30;5.80;;;;;;;24.12;50.95;101095.88;6128421;23;20029;-70
2023/09/05 08:56:27;;;;;;;6.15;5.75;;;;;;;24.23;51.08;101111.69;6121744;23;20024;-70
2023/09/05 08:58:56;;;;;;;6.45;6.05;;;;;;;24.40;51.72;101147.50;6104305;23;20045;-69
2023/09/05 09:01:24;;;;;;;6.45;6.05;;;;;;;24.49;51.35;101138.47;6120677;23;20021;-70
2023/09/05 09:03:53;;;;;;;6.22;5.93;;;;;;;24.39;49.51;101009.00;6122523;23;20036;-70
2023/09/05 09:06:24;;;;;;;6.38;5.97;;;;;;;24.11;50.42;101038.72;6070182;23;20025;-69
2023/09/05 09:08:53;;;;;;;6.03;5.72;;;;;;;24.71;50.58;101130.91;6126534;23;20021;-70
2023/09/05 09:11:21;;;;;;;6.57;6.18;;;;;;;24.84;50.72;101161.66;6088970;23;20030;-70
2023/09/05 09:13:52;;;;;;;5.90;5.60;;;;;;;24.89;49.46;101077.94;6122069;23;20053;-72
2023/09/05 09:16:18;;;;;;;6.53;6.13;;;;;;;24.49;50.19;101058.00;6120246;23;20366;-69
2023/09/05 09:18:49;;;;;;;6.30;5.90;;;;;;;24.83;49.51;101068.69;6120848;23;20096;-70
2023/09/05 09:21:17;;;;;;;6.10;5.78;;;;;;;24.62;48.92;101018.16;6079029;23;20070;-70
2023/09/05 09:23:48;;;;;;;5.97;5.68;;;;;;;24.90;48.97;101063.50;6124372;23;20028;-71
2023/09/05 09:26:14;;;;;;;6.13;5.72;;;;;;;25.07;48.83;101070.56;6078310;23;20080;-70
2023/09/05 09:28:41;;;;;;;6.18;5.85;;;;;;;24.95;50.14;101087.16;6093968;23;20029;-70
2023/09/05 09:31:12;;;;;;;6.88;5.90;;;;;;;25.37;49.53;101111.25;6121654;23;20006;-70
2023/09/05 09:33:40;;;;;;;6.30;5.90;;;;;;;25.33;48.38;101055.34;6125180;23;20032;-70
2023/09/05 09:36:09;;;;;;;6.70;6.20;;;;;;;25.08;49.00;101060.69;6101461;23;20290;-70
2023/09/05 09:38:38;;;;;;;6.40;6.00;;;;;;;23.52;48.97;100808.13;6123084;23;20275;-69
2023/09/05 09:41:06;;;;;;;6.53;6.13;;;;;;;25.41;48.53;101107.22;6092913;23;20021;-70
2023/09/05 09:43:34;;;;;;;5.80;5.50;;;;;;;24.69;48.72;100978.91;6097542;23;20637;-70
2023/09/05 09:46:04;;;;;;;6.30;5.90;;;;;;;25.52;48.00;101078.34;6097871;23;20033;-70
2023/09/05 09:48:36;;;;;;;5.90;5.60;;;;;;;25.57;48.19;101101.03;6102705;23;20025;-70
2023/09/05 09:51:07;;;;;;;6.03;5.70;;;;;;;25.73;48.04;101102.03;6095628;23;20017;-70
2023/09/05 09:53:39;;;;;;;6.03;5.53;;;;;;;25.56;46.90;101005.28;6089946;23;22031;-70
2023/09/05 09:56:18;;;;;;;6.55;6.15;;;;;;;25.94;47.19;101074.63;6095847;23;20009;-71
2023/09/05 09:58:48;;;;;;;6.10;5.80;;;;;;;25.75;47.07;101016.66;6113404;23;20024;-70
2023/09/05 10:01:16;;;;;;;6.07;5.78;;;;;;;25.80;47.32;101046.53;6120219;23;20061;-70
2023/09/05 10:03:44;;;;;;;6.30;5.90;;;;;;;26.05;46.98;101071.56;6126001;23;20072;-69
2023/09/05 10:06:12;;;;;;;6.03;5.72;;;;;;;26.01;46.26;101025.34;6121642;23;20021;-69
2023/09/05 10:08:39;;;;;;;6.22;5.82;;;;;;;26.02;46.04;101010.91;6093711;23;20018;-68
2023/09/05 10:11:14;;;;;;;6.05;5.75;;;;;;;25.61;46.38;100986.78;6125736;23;20028;-68
2023/09/05 10:13:42;;;;;;;5.93;5.60;;;;;;;26.21;47.19;101114.56;6117702;23;20025;-69
2023/09/05 10:16:09;;;;;;;6.18;5.78;;;;;;;26.15;46.48;101064.13;6123272;23;20582;-69
2023/09/05 10:18:39;;;;;;;6.25;5.75;;;;;;;26.39;46.38;101091.97;6069670;23;20026;-69
2023/09/05 10:21:06;;;;;;;6.25;5.95;;;;;;;26.19;46.75;101073.53;6118790;23;20030;-69
2023/09/05 10:23:35;;;;;;;6.35;5.95;;;;;;;26.58;45.88;101067.38;6123489;23;20059;-68
2023/09/05 10:26:03;;;;;;;7.22;5.72;;;;;;;26.30;46.13;101040.06;6128631;23;20013;-69
2023/09/05 10:28:30;;;;;;;6.22;5.93;;;;;;;26.66;46.07;101104.16;6123780;23;20025;-69
2023/09/05 10:31:12;;;;;;;6.18;5.88;;;;;;;26.63;46.31;101097.28;6095218;23;20021;-68
2023/09/05 10:33:42;;;;;;;6.40;5.97;;;;;;;26.82;45.45;101079.84;6122925;23;20041;-68
2023/09/05 10:36:39;;;;;;;5.90;5.60;;;;;;;26.83;46.15;101097.66;6124600;23;20308;-68
2023/09/05 10:39:24;;;;;;;6.15;5.85;;;;;;;26.49;45.83;101022.63;6091028;23;20025;-68
2023/09/05 10:41:51;;;;;;;6.07;5.63;;;;;;;27.01;46.51;101137.81;6121884;23;20204;-70
2023/09/05 10:44:18;;;;;;;5.85;5.55;;;;;;;26.81;45.57;101070.09;6126279;23;20009;-70
2023/09/05 10:46:52;;;;;;;5.93;5.63;;;;;;;27.14;45.78;101117.50;6130940;23;20041;-68
2023/09/05 10:49:18;;;;;;;6.63;6.00;;;;;;;27.05;45.95;101112.19;6132298;23;20010;-70
2023/09/05 10:52:19;;;;;;;6.18;5.80;;;;;;;27.33;45.55;101106.31;6114629;23;20033;-68
2023/09/05 10:54:46;;;;;;;6.00;5.60;;;;;;;27.37;45.19;101093.31;6116979;23;20027;-70
2023/09/05 10:57:33;;;;;;;6.38;6.00;;;;;;;27.52;44.67;101093.34;6117740;23;20052;-70
2023/09/05 11:00:11;;;;;;;6.03;5.72;;;;;;;27.21;44.91;101029.56;6114742;23;20465;-68
2023/09/05 11:02:40;;;;;;;6.05;5.75;;;;;;;27.16;45.16;101034.66;6114081;23;20444;-68
2023/09/05 11:05:20;;;;;;;6.00;5.70;;;;;;;27.32;45.34;101079.53;6091299;23;20050;-69
2023/09/05 11:07:50;;;;;;;6.18;5.88;;;;;;;27.68;45.40;101120.16;6120073;23;20041;-68
2023/09/05 11:10:33;;;;;;;5.88;5.57;;;;;;;27.73;44.11;101060.28;6113021;23;19997;-69
2023/09/05 11:13:11;;;;;;;6.22;5.82;;;;;;;27.57;43.93;101045.94;6112622;23;20412;-68
2023/09/05 11:15:43;;;;;;;6.10;5.80;;;;;;;27.31;44.25;101011.31;6111653;23;20851;-70
2023/09/05 11:18:12;;;;;;;6.10;5.70;;;;;;;27.55;43.80;101012.94;6095880;23;20037;-70
2023/09/05 11:20:39;;;;;;;5.90;5.60;;;;;;;27.62;44.84;101072.34;6088675;23;20026;-69
2023/09/05 11:23:14;;;;;;;6.38;5.97;;;;;;;27.73;44.54;101074.63;6098313;23;20862;-70
2023/09/05 11:25:41;;;;;;;6.22;5.82;;;;;;;27.61;44.36;101052.66;6095209;23;20029;-69
2023/09/05 11:28:08;;;;;;;6.20;5.90;;;;;;;27.36;44.40;101003.53;6082797;23;20033;-70